createdAt,value
2019-01-27T00:00:30.056Z,70.84
2019-01-27T00:02:56.183Z,71.12
2019-01-27T00:05:22.109Z,71.12
2019-01-27T00:07:48.220Z,71.35
2019-01-27T00:10:14.348Z,71.48
2019-01-27T00:12:40.402Z,71.40
2019-01-27T00:15:08.649Z,71.29
2019-01-27T00:17:34.924Z,71.54
2019-01-27T00:20:00.848Z,71.94
2019-01-27T00:22:26.818Z,72.51
2019-01-27T00:24:52.767Z,72.88
2019-01-27T00:27:18.811Z,72.93
2019-01-27T00:29:46.227Z,72.98
2019-01-27T00:32:12.282Z,73.18
2019-01-27T00:34:38.467Z,72.74
2019-01-27T00:37:06.954Z,73.29
2019-01-27T00:39:32.959Z,72.72
2019-01-27T00:41:58.874Z,73.05
2019-01-27T00:44:24.815Z,74.03
2019-01-27T00:46:50.807Z,73.86
2019-01-27T00:49:16.800Z,73.72
2019-01-27T00:51:42.735Z,74.00
2019-01-27T00:54:08.709Z,74.03
2019-01-27T00:56:34.619Z,74.10
2019-01-27T00:59:03.031Z,74.02
2019-01-27T01:01:29.395Z,73.94
2019-01-27T01:03:55.317Z,73.51
2019-01-27T01:06:21.451Z,73.56
2019-01-27T01:08:49.667Z,73.38
2019-01-27T01:11:15.793Z,73.49
2019-01-27T01:13:41.726Z,73.84
2019-01-27T01:16:07.795Z,74.25
2019-01-27T01:18:33.728Z,74.89
2019-01-27T01:21:00.598Z,75.09
2019-01-27T01:23:26.776Z,74.91
2019-01-27T01:25:53.026Z,74.81
2019-01-27T01:28:19.348Z,74.75
2019-01-27T01:30:46.103Z,74.38
2019-01-27T01:33:12.048Z,74.39
2019-01-27T01:35:37.990Z,74.71
2019-01-27T01:38:04.051Z,74.84
2019-01-27T01:40:30.073Z,75.17
2019-01-27T01:42:55.993Z,75.32
2019-01-27T01:45:24.459Z,75.69
2019-01-27T01:47:50.378Z,75.34
2019-01-27T01:50:16.511Z,75.81
2019-01-27T01:52:42.495Z,75.38
2019-01-27T01:55:10.402Z,75.27
2019-01-27T01:57:36.362Z,75.43
2019-01-27T02:00:03.794Z,75.41
2019-01-27T02:02:29.738Z,75.76
2019-01-27T02:04:55.675Z,75.81
2019-01-27T02:07:22.779Z,76.42
2019-01-27T02:09:48.707Z,76.52
2019-01-27T02:12:14.643Z,76.28
2019-01-27T02:14:40.642Z,76.25
2019-01-27T02:17:06.776Z,76.34
2019-01-27T02:19:32.784Z,76.21
2019-01-27T02:21:58.763Z,76.79
2019-01-27T02:24:24.687Z,77.05
2019-01-27T02:26:50.633Z,77.30
2019-01-27T02:29:16.604Z,76.82
2019-01-27T02:31:42.615Z,76.87
2019-01-27T02:34:08.656Z,76.79
2019-01-27T02:36:35.158Z,77.08
2019-01-27T02:39:01.092Z,76.74
2019-01-27T02:41:27.038Z,76.87
2019-01-27T02:43:53.309Z,77.03
2019-01-27T02:46:19.216Z,76.90
2019-01-27T02:48:45.495Z,76.83
2019-01-27T02:51:13.064Z,76.62
2019-01-27T02:53:39.095Z,76.84
2019-01-27T02:56:05.027Z,76.93
2019-01-27T02:58:31.026Z,76.95
2019-01-27T03:00:57.521Z,76.89
2019-01-27T03:03:23.458Z,77.14
2019-01-27T03:05:51.359Z,77.32
2019-01-27T03:08:17.289Z,77.13
2019-01-27T03:10:43.226Z,76.82
2019-01-27T03:13:09.179Z,76.76
2019-01-27T03:15:35.211Z,77.09
2019-01-27T03:18:01.140Z,76.86
2019-01-27T03:20:27.640Z,77.09
2019-01-27T03:22:53.868Z,76.99
2019-01-27T03:25:20.224Z,76.87
2019-01-27T03:27:46.149Z,76.77
2019-01-27T03:30:15.591Z,77.11
2019-01-27T03:32:42.487Z,77.57
2019-01-27T03:35:09.550Z,77.65
2019-01-27T03:37:36.198Z,77.88
2019-01-27T03:40:05.800Z,77.68
2019-01-27T03:42:31.800Z,77.45
2019-01-27T03:44:57.724Z,77.51
2019-01-27T03:47:23.652Z,77.74
2019-01-27T03:49:50.522Z,77.41
2019-01-27T03:52:16.652Z,77.92
2019-01-27T03:54:42.571Z,78.08
2019-01-27T03:57:08.548Z,77.73
2019-01-27T03:59:34.467Z,77.58
2019-01-27T04:02:00.395Z,77.66
2019-01-27T04:04:26.696Z,78.01
2019-01-27T04:06:52.627Z,78.13
2019-01-27T04:09:18.558Z,78.25
2019-01-27T04:11:44.511Z,78.47
2019-01-27T04:14:11.435Z,78.44
2019-01-27T04:16:38.787Z,78.46
2019-01-27T04:19:04.868Z,78.53
2019-01-27T04:21:30.793Z,78.50
2019-01-27T04:23:56.742Z,78.46
2019-01-27T04:26:22.781Z,78.45
2019-01-27T04:28:48.708Z,78.31
2019-01-27T04:31:16.196Z,78.23
2019-01-27T04:33:42.215Z,78.36
2019-01-27T04:36:08.135Z,78.28
2019-01-27T04:38:34.165Z,78.37
2019-01-27T04:41:00.117Z,78.40
2019-01-27T04:43:26.344Z,78.39
2019-01-27T04:45:52.264Z,78.56
2019-01-27T04:48:18.271Z,78.48
2019-01-27T04:50:44.449Z,78.37
2019-01-27T04:53:10.385Z,78.25
2019-01-27T04:55:36.980Z,78.22
2019-01-27T04:58:03.312Z,78.24
2019-01-27T05:00:29.238Z,78.36
2019-01-27T05:02:57.106Z,78.33
2019-01-27T05:05:23.253Z,78.40
2019-01-27T05:07:49.273Z,78.45
2019-01-27T05:10:15.280Z,78.42
2019-01-27T05:12:41.464Z,78.41
2019-01-27T05:15:11.019Z,78.30
2019-01-27T05:17:36.964Z,78.24
2019-01-27T05:20:07.008Z,78.23
2019-01-27T05:22:32.933Z,78.16
2019-01-27T05:24:58.902Z,78.37
2019-01-27T05:27:25.511Z,78.20
2019-01-27T05:29:51.464Z,78.39
2019-01-27T05:32:17.458Z,78.51
2019-01-27T05:34:43.791Z,78.59
2019-01-27T05:37:09.788Z,78.52
2019-01-27T05:39:36.079Z,78.74
2019-01-27T05:42:03.257Z,78.87
2019-01-27T05:44:29.582Z,79.04
2019-01-27T05:46:56.660Z,79.12
2019-01-27T05:49:24.488Z,79.11
2019-01-27T05:51:50.428Z,78.96
2019-01-27T05:54:16.417Z,78.98
2019-01-27T05:56:43.564Z,78.84
2019-01-27T05:59:09.595Z,78.87
2019-01-27T06:01:35.571Z,78.79
2019-01-27T06:04:01.607Z,78.85
2019-01-27T06:06:27.530Z,78.87
2019-01-27T06:08:53.492Z,78.85
2019-01-27T06:11:19.420Z,78.76
2019-01-27T06:13:45.833Z,78.78
2019-01-27T06:16:11.946Z,78.82
2019-01-27T06:18:37.875Z,78.90
2019-01-27T06:21:03.804Z,78.86
2019-01-27T06:23:29.755Z,78.71
2019-01-27T06:25:55.691Z,78.49
2019-01-27T06:28:21.653Z,78.60
2019-01-27T06:30:47.593Z,78.56
2019-01-27T06:33:22.234Z,78.65
2019-01-27T06:35:48.290Z,78.60
2019-01-27T06:38:14.576Z,78.59
2019-01-27T06:40:40.903Z,78.57
2019-01-27T06:43:06.831Z,78.55
2019-01-27T06:45:33.503Z,78.53
2019-01-27T06:47:59.430Z,78.46
2019-01-27T06:50:25.361Z,78.48
2019-01-27T06:52:51.718Z,78.30
2019-01-27T06:55:19.554Z,78.26
2019-01-27T06:57:45.478Z,78.53
2019-01-27T07:00:30.043Z,78.62
2019-01-27T07:02:57.904Z,78.76
2019-01-27T07:05:31.566Z,78.73
2019-01-27T07:07:59.413Z,78.78
2019-01-27T07:10:30.275Z,78.84
2019-01-27T07:13:01.489Z,78.63
2019-01-27T07:15:35.055Z,78.58
2019-01-27T07:18:08.759Z,79.13
2019-01-27T07:20:39.165Z,78.88
2019-01-27T07:23:12.876Z,78.52
2019-01-27T07:25:40.734Z,78.36
2019-01-27T07:28:24.942Z,78.20
2019-01-27T07:30:55.729Z,78.14
2019-01-27T07:33:40.394Z,78.00
2019-01-27T07:36:11.032Z,77.88
2019-01-27T07:38:49.587Z,78.02
2019-01-27T07:41:26.296Z,77.90
2019-01-27T07:43:56.740Z,78.05
2019-01-27T07:46:27.382Z,78.14
2019-01-27T07:49:03.896Z,78.17
2019-01-27T07:51:48.179Z,78.03
2019-01-27T07:54:16.076Z,78.27
2019-01-27T07:57:00.285Z,78.39
2019-01-27T07:59:34.228Z,78.34
2019-01-27T08:02:02.056Z,78.22
2019-01-27T08:04:32.678Z,77.97
2019-01-27T08:07:09.648Z,78.00
2019-01-27T08:09:46.518Z,78.06
2019-01-27T08:12:17.600Z,78.20
2019-01-27T08:14:47.953Z,78.35
2019-01-27T08:17:22.740Z,78.16
2019-01-27T08:19:59.201Z,77.90
2019-01-27T08:22:29.627Z,77.83
2019-01-27T08:25:03.508Z,78.75
2019-01-27T08:27:43.493Z,78.58
2019-01-27T08:30:14.928Z,78.10
2019-01-27T08:32:48.617Z,77.83
2019-01-27T08:35:16.496Z,77.88
2019-01-27T08:37:44.333Z,77.83
2019-01-27T08:40:18.256Z,77.79
2019-01-27T08:43:04.245Z,77.84
2019-01-27T08:45:44.250Z,77.75
2019-01-27T08:48:10.198Z,77.50
2019-01-27T08:50:36.259Z,77.76
2019-01-27T08:53:02.565Z,77.64
2019-01-27T08:55:28.491Z,77.77
2019-01-27T08:57:55.330Z,77.73
2019-01-27T09:00:26.609Z,77.94
2019-01-27T09:02:54.463Z,77.75
2019-01-27T09:05:22.339Z,77.69
2019-01-27T09:07:50.219Z,77.41
2019-01-27T09:10:21.467Z,77.17
2019-01-27T09:12:49.348Z,77.57
2019-01-27T09:15:35.374Z,77.67
2019-01-27T09:18:06.137Z,77.81
2019-01-27T09:20:33.982Z,77.65
2019-01-27T09:23:01.862Z,77.85
2019-01-27T09:25:46.188Z,77.82
2019-01-27T09:28:26.114Z,78.25
2019-01-27T09:30:56.555Z,78.42
2019-01-27T09:33:26.956Z,78.52
2019-01-27T09:35:57.836Z,78.74
2019-01-27T09:38:25.675Z,78.33
2019-01-27T09:40:54.485Z,78.09
2019-01-27T09:43:34.227Z,77.82
2019-01-27T09:46:06.213Z,77.48
2019-01-27T09:48:48.734Z,77.29
2019-01-27T09:51:16.576Z,77.14
2019-01-27T09:53:46.949Z,77.02
2019-01-27T09:56:17.376Z,76.97
2019-01-27T09:59:00.253Z,76.89
2019-01-27T10:01:30.808Z,76.90
2019-01-27T10:04:15.369Z,76.69
2019-01-27T10:06:43.246Z,76.99
2019-01-27T10:09:27.912Z,77.12
2019-01-27T10:11:55.913Z,77.07
2019-01-27T10:14:40.421Z,76.93
2019-01-27T10:17:11.334Z,76.80
2019-01-27T10:19:50.313Z,76.60
2019-01-27T10:22:21.240Z,76.54
2019-01-27T10:24:49.122Z,76.39
2019-01-27T10:27:35.192Z,76.40
2019-01-27T10:30:05.847Z,76.67
2019-01-27T10:32:42.856Z,76.78
2019-01-27T10:35:11.393Z,76.95
2019-01-27T10:37:48.066Z,76.92
2019-01-27T10:40:18.431Z,76.88
2019-01-27T10:42:48.926Z,76.99
2019-01-27T10:45:33.153Z,76.94
2019-01-27T10:48:16.354Z,77.34
2019-01-27T10:50:44.298Z,77.31
2019-01-27T10:53:14.983Z,77.30
2019-01-27T10:55:48.593Z,77.17
2019-01-27T10:58:28.667Z,76.89
2019-01-27T11:00:56.642Z,76.96
2019-01-27T11:03:25.618Z,76.92
2019-01-27T11:06:02.671Z,76.84
2019-01-27T11:08:34.747Z,76.76
2019-01-27T11:11:05.401Z,76.52
2019-01-27T11:13:45.225Z,76.44
2019-01-27T11:16:13.550Z,76.06
2019-01-27T11:18:50.418Z,75.89
2019-01-27T11:21:35.100Z,75.96
2019-01-27T11:24:05.700Z,75.86
2019-01-27T11:26:33.660Z,75.73
2019-01-27T11:29:01.526Z,75.78
2019-01-27T11:31:41.379Z,75.71
2019-01-27T11:34:12.375Z,75.66
2019-01-27T11:36:40.337Z,75.62
2019-01-27T11:39:14.608Z,75.64
2019-01-27T11:41:42.450Z,75.78
2019-01-27T11:44:25.180Z,75.56
2019-01-27T11:46:55.844Z,75.61
2019-01-27T11:49:23.673Z,75.51
2019-01-27T11:51:50.774Z,75.51
2019-01-27T11:54:16.695Z,75.43
2019-01-27T11:56:42.635Z,75.31
2019-01-27T11:59:08.728Z,75.32
2019-01-27T12:01:34.680Z,75.20
2019-01-27T12:04:00.720Z,75.02
2019-01-27T12:06:26.679Z,75.12
2019-01-27T12:08:52.860Z,75.11
2019-01-27T12:11:18.796Z,75.29
2019-01-27T12:13:44.800Z,75.22
2019-01-27T12:16:10.727Z,75.20
2019-01-27T12:18:36.687Z,75.21
2019-01-27T12:21:02.755Z,75.18
2019-01-27T12:23:28.686Z,75.26
2019-01-27T12:25:54.974Z,75.16
2019-01-27T12:28:20.898Z,75.14
2019-01-27T12:30:46.880Z,75.05
2019-01-27T12:33:12.815Z,74.85
2019-01-27T12:35:39.321Z,74.84
2019-01-27T12:38:05.465Z,74.87
2019-01-27T12:40:31.500Z,74.87
2019-01-27T12:42:57.559Z,75.28
2019-01-27T12:45:24.496Z,75.31
2019-01-27T12:47:51.755Z,75.38
2019-01-27T12:50:18.818Z,75.45
2019-01-27T12:52:50.537Z,75.48
2019-01-27T12:55:16.471Z,75.40
2019-01-27T12:57:45.243Z,75.68
2019-01-27T13:00:17.556Z,76.40
2019-01-27T13:02:43.913Z,76.68
2019-01-27T13:05:10.548Z,76.56
2019-01-27T13:07:40.008Z,76.64
2019-01-27T13:10:10.874Z,76.61
2019-01-27T13:12:37.126Z,76.58
2019-01-27T13:15:07.020Z,76.24
2019-01-27T13:17:33.011Z,76.49
2019-01-27T13:20:03.491Z,75.82
2019-01-27T13:22:29.775Z,75.95
2019-01-27T13:24:57.634Z,75.60
2019-01-27T13:27:26.092Z,75.48
2019-01-27T13:29:52.495Z,75.45
2019-01-27T13:32:18.418Z,75.56
2019-01-27T13:34:44.490Z,75.64
2019-01-27T13:37:10.569Z,75.47
2019-01-27T13:39:36.543Z,75.52
2019-01-27T13:42:02.809Z,75.54
2019-01-27T13:44:36.314Z,75.86
2019-01-27T13:47:03.135Z,76.04
2019-01-27T13:49:29.098Z,76.06
2019-01-27T13:51:55.046Z,76.35
2019-01-27T13:54:20.982Z,76.29
2019-01-27T13:56:46.997Z,76.64
2019-01-27T13:59:12.943Z,76.71
2019-01-27T14:01:38.880Z,77.05
2019-01-27T14:04:04.984Z,77.27
2019-01-27T14:06:30.912Z,77.64
2019-01-27T14:08:56.887Z,77.51
2019-01-27T14:11:22.978Z,77.85
2019-01-27T14:13:49.425Z,77.62
2019-01-27T14:16:16.000Z,77.74
2019-01-27T14:18:42.266Z,77.91
2019-01-27T14:21:08.212Z,78.54
2019-01-27T14:23:34.143Z,78.81
2019-01-27T14:26:00.362Z,78.77
2019-01-27T14:28:28.433Z,79.02
2019-01-27T14:30:54.376Z,79.49
2019-01-27T14:33:20.806Z,79.23
2019-01-27T14:35:46.868Z,79.23
2019-01-27T14:38:15.004Z,79.28
2019-01-27T14:40:40.960Z,79.27
2019-01-27T14:43:07.125Z,79.51
2019-01-27T14:45:36.038Z,79.48
2019-01-27T14:48:03.275Z,79.59
2019-01-27T14:50:40.221Z,79.54
2019-01-27T14:53:07.471Z,79.67
2019-01-27T14:55:33.413Z,79.98
2019-01-27T14:57:59.737Z,80.17
2019-01-27T15:00:36.221Z,80.24
2019-01-27T15:02:59.148Z,80.38
2019-01-27T15:05:25.303Z,80.54
2019-01-27T15:07:51.364Z,80.63
2019-01-27T15:10:20.390Z,80.74
2019-01-27T15:12:46.924Z,80.99
2019-01-27T15:15:18.782Z,81.45
2019-01-27T15:17:45.193Z,81.71
2019-01-27T15:20:17.657Z,81.91
2019-01-27T15:22:47.407Z,81.87
2019-01-27T15:25:13.447Z,81.62
2019-01-27T15:27:40.960Z,81.65
2019-01-27T15:30:19.990Z,81.89
2019-01-27T15:32:47.909Z,81.88
2019-01-27T15:35:14.966Z,82.04
2019-01-27T15:37:42.981Z,82.13
2019-01-27T15:40:12.127Z,81.99
2019-01-27T15:42:38.907Z,82.06
2019-01-27T15:45:24.740Z,82.11
2019-01-27T15:47:53.286Z,81.79
2019-01-27T15:50:33.995Z,81.84
2019-01-27T15:53:00.527Z,81.77
2019-01-27T15:55:26.562Z,81.70
2019-01-27T15:57:55.067Z,81.73
2019-01-27T16:00:24.253Z,81.80
2019-01-27T16:02:50.289Z,81.68
2019-01-27T16:05:19.835Z,81.29
2019-01-27T16:07:49.554Z,81.18
2019-01-27T16:10:20.423Z,81.41
2019-01-27T16:16:41.288Z,81.85
2019-01-27T16:19:07.250Z,81.84
2019-01-27T16:21:36.620Z,81.95
2019-01-27T16:24:08.002Z,82.01
2019-01-27T16:26:34.906Z,82.06
2019-01-27T16:29:00.916Z,82.16
2019-01-27T16:31:30.614Z,82.09
2019-01-27T16:33:58.540Z,82.12
2019-01-27T16:36:27.999Z,82.09
2019-01-27T16:38:55.321Z,82.06
2019-01-27T16:41:21.291Z,82.00
2019-01-27T16:43:47.633Z,82.46
2019-01-27T16:46:13.564Z,82.26
2019-01-27T16:48:39.988Z,82.02
2019-01-27T16:51:08.262Z,81.87
2019-01-27T16:57:23.972Z,81.71
2019-01-27T16:59:52.659Z,81.55
2019-01-27T17:02:18.634Z,81.31
2019-01-27T17:08:34.680Z,81.36
2019-01-27T17:11:00.919Z,81.34
2019-01-27T17:13:26.907Z,81.26
2019-01-27T17:15:52.921Z,81.28
2019-01-27T17:18:19.165Z,81.50
2019-01-27T17:20:45.479Z,81.46
2019-01-27T17:23:11.478Z,81.75
2019-01-27T17:25:37.510Z,81.89
2019-01-27T17:28:03.742Z,81.86
2019-01-27T17:30:31.259Z,81.99
2019-01-27T17:32:58.702Z,81.96
2019-01-27T17:35:24.999Z,82.03
2019-01-27T17:37:52.687Z,82.16
2019-01-27T17:40:21.543Z,82.17
2019-01-27T17:42:47.655Z,82.16
2019-01-27T17:45:15.788Z,82.20
2019-01-27T17:47:42.009Z,82.22
2019-01-27T17:50:11.714Z,82.11
2019-01-27T17:52:39.446Z,82.15
2019-01-27T17:55:11.003Z,82.03
2019-01-27T17:57:38.888Z,81.95
2019-01-27T18:00:30.318Z,81.96
2019-01-27T18:03:04.282Z,81.73
2019-01-27T18:05:32.411Z,81.98
2019-01-27T18:08:03.084Z,81.93
2019-01-27T18:10:33.471Z,81.97
2019-01-27T18:13:01.501Z,81.90
2019-01-27T18:15:28.048Z,81.82
2019-01-27T18:17:53.970Z,82.02
2019-01-27T18:20:20.055Z,81.92
2019-01-27T18:22:48.670Z,82.20
2019-01-27T18:25:14.602Z,82.74
2019-01-27T18:27:40.615Z,82.59
2019-01-27T18:30:14.669Z,82.63
2019-01-27T18:32:40.748Z,82.64
2019-01-27T18:35:07.066Z,82.39
2019-01-27T18:37:37.368Z,82.11
2019-01-27T18:40:07.341Z,82.28
2019-01-27T18:42:33.424Z,82.26
2019-01-27T18:44:59.350Z,82.20
2019-01-27T18:47:26.300Z,82.15
2019-01-27T18:49:54.247Z,82.46
2019-01-27T18:52:21.976Z,82.62
2019-01-27T18:55:01.975Z,82.71
2019-01-27T18:57:29.898Z,82.76
2019-01-27T18:59:59.796Z,82.70
2019-01-27T19:02:30.507Z,82.59
2019-01-27T19:05:01.143Z,82.77
2019-01-27T19:07:31.827Z,82.75
2019-01-27T19:10:02.745Z,82.56
2019-01-27T19:12:36.149Z,82.83
2019-01-27T19:15:10.111Z,82.64
2019-01-27T19:17:40.493Z,82.63
2019-01-27T19:20:20.662Z,82.71
2019-01-27T19:22:54.349Z,82.64
2019-01-27T19:25:26.527Z,83.05
2019-01-27T19:28:10.930Z,83.38
2019-01-27T19:30:38.807Z,83.43
2019-01-27T19:33:06.652Z,83.42
2019-01-27T19:35:34.549Z,83.47
2019-01-27T19:38:02.581Z,83.61
2019-01-27T19:40:42.344Z,83.64
2019-01-27T19:43:11.578Z,83.72
2019-01-27T19:45:49.561Z,83.65
2019-01-27T19:48:20.351Z,83.88
2019-01-27T19:50:48.288Z,83.78
2019-01-27T19:53:24.974Z,83.58
2019-01-27T19:55:57.529Z,83.48
2019-01-27T19:58:43.544Z,83.49
2019-01-27T20:01:27.736Z,83.24
2019-01-27T20:03:55.633Z,83.32
2019-01-27T20:06:23.492Z,83.34
2019-01-27T20:09:00.165Z,83.44
2019-01-27T20:11:45.798Z,83.51
2019-01-27T20:14:15.643Z,83.54
2019-01-27T20:16:52.345Z,83.67
2019-01-27T20:19:26.131Z,83.74
2019-01-27T20:21:55.377Z,83.96
2019-01-27T20:24:29.151Z,84.04
2019-01-27T20:27:02.804Z,84.04
2019-01-27T20:29:36.508Z,83.99
2019-01-27T20:32:10.462Z,83.92
2019-01-27T20:34:55.271Z,83.95
2019-01-27T20:37:23.124Z,83.83
2019-01-27T20:40:01.230Z,83.82
2019-01-27T20:42:34.605Z,83.79
2019-01-27T20:45:08.357Z,83.82
2019-01-27T20:47:47.994Z,83.84
2019-01-27T20:50:18.573Z,83.79
2019-01-27T20:52:46.425Z,83.78
2019-01-27T20:55:23.447Z,83.82
2019-01-27T20:57:52.191Z,84.04
2019-01-27T21:00:20.091Z,84.09
2019-01-27T21:02:51.282Z,83.83
2019-01-27T21:05:35.500Z,83.54
2019-01-27T21:08:18.537Z,83.77
2019-01-27T21:10:46.390Z,83.68
2019-01-27T21:13:16.760Z,83.52
2019-01-27T21:15:44.640Z,83.73
2019-01-27T21:18:12.492Z,83.75
2019-01-27T21:20:38.750Z,83.78
2019-01-27T21:23:04.749Z,83.69
2019-01-27T21:25:30.986Z,83.70
2019-01-27T21:27:56.936Z,83.73
2019-01-27T21:30:22.925Z,83.60
2019-01-27T21:32:48.874Z,83.55
2019-01-27T21:35:14.929Z,83.51
2019-01-27T21:37:40.890Z,83.58
2019-01-27T21:40:13.780Z,83.51
2019-01-27T21:42:47.053Z,83.33
2019-01-27T21:45:10.738Z,83.43
2019-01-27T21:47:36.671Z,83.36
2019-01-27T21:50:06.020Z,83.44
2019-01-27T21:52:32.053Z,83.47
2019-01-27T21:54:59.193Z,83.68
2019-01-27T21:57:25.143Z,83.80
2019-01-27T21:59:52.048Z,83.76
2019-01-27T22:02:18.790Z,83.67
2019-01-27T22:04:44.766Z,83.40
2019-01-27T22:07:10.739Z,83.39
2019-01-27T22:09:36.672Z,83.74
2019-01-27T22:12:03.173Z,83.81
2019-01-27T22:14:29.122Z,83.65
2019-01-27T22:16:55.059Z,83.89
2019-01-27T22:19:21.031Z,83.71
2019-01-27T22:21:49.384Z,83.81
2019-01-27T22:24:17.255Z,84.50
2019-01-27T22:26:43.191Z,84.34
2019-01-27T22:29:09.255Z,84.13
2019-01-27T22:31:35.184Z,83.97
2019-01-27T22:34:01.132Z,83.67
2019-01-27T22:36:28.365Z,83.72
2019-01-27T22:38:54.303Z,83.84
2019-01-27T22:41:20.233Z,83.82
2019-01-27T22:43:46.255Z,83.70
2019-01-27T22:46:12.150Z,83.57
2019-01-27T22:48:38.075Z,83.70
2019-01-27T22:51:04.078Z,83.92
2019-01-27T22:53:29.995Z,83.93
2019-01-27T22:55:56.137Z,84.01
2019-01-27T22:58:23.013Z,84.15
2019-01-27T23:01:01.268Z,84.19
2019-01-27T23:03:29.345Z,84.21
2019-01-27T23:05:55.879Z,84.17
2019-01-27T23:08:21.811Z,84.19
2019-01-27T23:10:47.809Z,84.09
2019-01-27T23:13:13.748Z,84.06
2019-01-27T23:15:39.680Z,83.88
2019-01-27T23:18:05.653Z,83.93
2019-01-27T23:20:31.587Z,83.74
2019-01-27T23:22:57.543Z,83.56
2019-01-27T23:25:24.120Z,83.68
2019-01-27T23:27:50.041Z,83.79
2019-01-27T23:30:15.983Z,83.79
2019-01-27T23:32:41.965Z,84.16
2019-01-27T23:35:07.905Z,84.19
2019-01-27T23:37:33.861Z,84.05
2019-01-27T23:39:59.943Z,84.06
2019-01-27T23:42:25.890Z,84.21
2019-01-27T23:44:51.827Z,84.36
2019-01-27T23:47:19.753Z,84.44
2019-01-27T23:49:45.923Z,84.67
2019-01-27T23:52:11.863Z,84.46
2019-01-27T23:54:37.859Z,84.48
2019-01-27T23:57:04.200Z,84.57
2019-01-27T23:59:30.132Z,84.56
